createdAt,value
2023-03-15T00:01:31.503Z,99541.02
2023-03-15T00:04:00.463Z,99535.02
2023-03-15T00:06:29.677Z,99527.75
2023-03-15T00:08:58.790Z,99524.57
2023-03-15T00:11:31.386Z,99530.70
2023-03-15T00:14:01.603Z,99525.33
2023-03-15T00:16:33.318Z,99517.02
2023-03-15T00:19:03.586Z,99516.52
2023-03-15T00:21:33.441Z,99519.58
2023-03-15T00:24:02.433Z,99508.50
2023-03-15T00:26:32.220Z,99501.23
2023-03-15T00:29:01.465Z,99498.23
2023-03-15T00:31:33.723Z,99498.70
2023-03-15T00:34:02.853Z,99503.67
2023-03-15T00:36:32.749Z,99507.25
2023-03-15T00:39:02.345Z,99508.33
2023-03-15T00:41:32.758Z,99503.58
2023-03-15T00:44:06.993Z,99503.94
2023-03-15T00:46:36.450Z,99504.75
2023-03-15T00:49:05.744Z,99505.96
2023-03-15T00:51:35.632Z,99506.39
2023-03-15T00:54:04.565Z,99508.50
2023-03-15T00:56:38.069Z,99507.45
2023-03-15T00:59:07.606Z,99510.80
2023-03-15T01:01:36.817Z,99503.36
2023-03-15T01:04:07.158Z,99504.61
2023-03-15T01:06:36.557Z,99497.63
2023-03-15T01:09:06.241Z,99495.05
2023-03-15T01:11:37.877Z,99494.85
2023-03-15T01:14:09.387Z,99498.95
2023-03-15T01:16:41.154Z,99500.23
2023-03-15T01:19:14.628Z,99505.52
2023-03-15T01:21:44.785Z,99507.66
2023-03-15T01:24:14.873Z,99508.20
2023-03-15T01:26:43.644Z,99510.04
2023-03-15T01:29:14.077Z,99507.99
2023-03-15T01:31:46.805Z,99509.91
2023-03-15T01:34:17.102Z,99511.09
2023-03-15T01:36:52.896Z,99512.04
2023-03-15T01:39:23.721Z,99508.80
2023-03-15T01:41:52.546Z,99508.49
2023-03-15T01:44:22.493Z,99500.80
2023-03-15T01:46:51.529Z,99499.95
2023-03-15T01:49:30.316Z,99499.14
2023-03-15T01:52:06.622Z,99502.86
2023-03-15T01:55:05.876Z,99507.45
2023-03-15T01:57:39.426Z,99508.91
2023-03-15T02:00:15.839Z,99514.04
2023-03-15T02:03:05.367Z,99511.67
2023-03-15T02:05:37.611Z,99510.21
2023-03-15T02:08:08.556Z,99510.11
2023-03-15T02:10:52.217Z,99508.08
2023-03-15T02:13:23.945Z,99506.45
2023-03-15T02:15:53.997Z,99506.02
2023-03-15T02:18:39.778Z,99501.44
2023-03-15T02:21:25.227Z,99498.79
2023-03-15T02:24:33.632Z,99498.02
2023-03-15T02:27:02.906Z,99500.15
2023-03-15T02:29:32.107Z,99501.94
2023-03-15T02:32:06.283Z,99496.08
2023-03-15T02:34:36.467Z,99499.11
2023-03-15T02:37:05.399Z,99494.73
2023-03-15T02:39:34.459Z,99496.79
2023-03-15T02:42:03.479Z,99498.55
2023-03-15T02:44:38.597Z,99496.13
2023-03-15T02:47:20.939Z,99493.71
2023-03-15T02:49:51.444Z,99490.17
2023-03-15T02:52:21.629Z,99484.82
2023-03-15T02:54:50.776Z,99482.73
2023-03-15T02:57:20.914Z,99478.65
2023-03-15T02:59:51.242Z,99479.14
2023-03-15T03:02:26.464Z,99476.20
2023-03-15T03:04:55.567Z,99479.06
2023-03-15T03:07:24.273Z,99475.95
2023-03-15T03:09:59.429Z,99479.16
2023-03-15T03:12:29.368Z,99478.65
2023-03-15T03:15:04.127Z,99475.66
2023-03-15T03:17:37.791Z,99474.98
2023-03-15T03:20:12.069Z,99470.92
2023-03-15T03:22:45.268Z,99469.59
2023-03-15T03:25:14.771Z,99468.91
2023-03-15T03:27:48.390Z,99465.65
2023-03-15T03:30:17.970Z,99471.94
2023-03-15T03:32:51.293Z,99475.80
2023-03-15T03:35:21.784Z,99476.77
2023-03-15T03:37:54.218Z,99480.09
2023-03-15T03:40:36.124Z,99479.03
2023-03-15T03:43:07.894Z,99481.65
2023-03-15T03:45:36.852Z,99480.73
2023-03-15T03:48:07.187Z,99477.30
2023-03-15T03:50:36.306Z,99480.50
2023-03-15T03:53:06.951Z,99485.03
2023-03-15T03:55:38.455Z,99480.29
2023-03-15T03:58:10.204Z,99485.16
2023-03-15T04:00:46.703Z,99483.39
2023-03-15T04:03:15.763Z,99487.02
2023-03-15T04:05:49.043Z,99485.98
2023-03-15T04:08:23.265Z,99486.41
2023-03-15T04:10:57.453Z,99487.35
2023-03-15T04:13:30.378Z,99489.65
2023-03-15T04:16:04.177Z,99493.00
2023-03-15T04:18:45.063Z,99494.63
2023-03-15T04:21:14.570Z,99495.40
2023-03-15T04:23:45.653Z,99497.20
2023-03-15T04:26:20.487Z,99500.30
2023-03-15T04:28:59.749Z,99496.21
2023-03-15T04:32:02.132Z,99494.95
2023-03-15T04:34:51.668Z,99493.63
2023-03-15T04:37:50.579Z,99494.50
2023-03-15T04:40:38.924Z,99492.58
2023-03-15T04:43:26.707Z,99493.60
2023-03-15T04:46:11.298Z,99495.43
2023-03-15T04:48:58.890Z,99498.55
2023-03-15T04:51:56.769Z,99500.02
2023-03-15T04:54:35.479Z,99498.81
2023-03-15T04:57:23.117Z,99494.09
2023-03-15T05:00:08.080Z,99498.88
2023-03-15T05:02:56.249Z,99499.64
2023-03-15T05:05:34.677Z,99501.61
2023-03-15T05:08:39.977Z,99502.68
2023-03-15T05:11:18.996Z,99504.94
2023-03-15T05:13:55.837Z,99502.78
2023-03-15T05:16:35.729Z,99507.94
2023-03-15T05:19:28.841Z,99509.85
2023-03-15T05:22:09.711Z,99511.57
2023-03-15T05:24:46.652Z,99514.40
2023-03-15T05:27:35.491Z,99516.09
2023-03-15T05:30:23.819Z,99516.49
2023-03-15T05:33:07.106Z,99521.48
2023-03-15T05:35:49.267Z,99524.70
2023-03-15T05:38:35.579Z,99526.70
2023-03-15T05:41:25.189Z,99525.48
2023-03-15T05:44:17.271Z,99522.06
2023-03-15T05:47:19.070Z,99524.52
2023-03-15T05:50:03.989Z,99526.84
2023-03-15T05:52:57.634Z,99519.70
2023-03-15T05:55:37.521Z,99518.75
2023-03-15T05:58:20.862Z,99513.06
2023-03-15T06:01:21.569Z,99513.34
2023-03-15T06:04:15.721Z,99517.86
2023-03-15T06:06:45.650Z,99516.33
2023-03-15T06:09:14.777Z,99512.30
2023-03-15T06:11:45.856Z,99512.95
2023-03-15T06:14:14.916Z,99512.91
2023-03-15T06:16:54.034Z,99513.83
2023-03-15T06:19:25.166Z,99510.40
2023-03-15T06:21:55.714Z,99513.59
2023-03-15T06:24:32.973Z,99514.42
2023-03-15T06:27:02.062Z,99511.91
2023-03-15T06:29:31.099Z,99513.94
2023-03-15T06:32:01.234Z,99518.85
2023-03-15T06:34:30.895Z,99512.01
2023-03-15T06:37:01.759Z,99507.54
2023-03-15T06:39:34.925Z,99498.36
2023-03-15T06:42:05.425Z,99498.85
2023-03-15T06:44:35.853Z,99496.66
2023-03-15T06:47:08.708Z,99497.79
2023-03-15T06:49:41.639Z,99497.49
2023-03-15T06:52:12.127Z,99500.25
2023-03-15T06:54:41.232Z,99501.92
2023-03-15T06:57:10.306Z,99502.30
2023-03-15T06:59:40.024Z,99499.48
2023-03-15T07:02:19.166Z,99494.13
2023-03-15T07:04:48.599Z,99496.92
2023-03-15T07:07:23.094Z,99492.69
2023-03-15T07:09:52.984Z,99490.60
2023-03-15T07:12:23.343Z,99480.45
2023-03-15T07:14:54.944Z,99483.96
2023-03-15T07:17:23.964Z,99492.58
2023-03-15T07:19:56.673Z,99489.00
2023-03-15T07:22:27.159Z,99489.21
2023-03-15T07:24:56.145Z,99492.09
2023-03-15T07:27:25.923Z,99495.95
2023-03-15T07:29:56.064Z,99496.80
2023-03-15T07:32:25.531Z,99498.62
2023-03-15T07:34:58.793Z,99494.69
2023-03-15T07:37:29.807Z,99489.23
2023-03-15T07:40:01.076Z,99497.91
2023-03-15T07:42:30.298Z,99491.48
2023-03-15T07:45:01.291Z,99486.80
2023-03-15T07:47:33.988Z,99481.45
2023-03-15T07:50:05.895Z,99484.52
2023-03-15T07:52:34.980Z,99481.86
2023-03-15T07:55:08.907Z,99476.44
2023-03-15T07:57:38.378Z,99468.86
2023-03-15T08:00:14.159Z,99461.83
2023-03-15T08:02:43.705Z,99469.36
2023-03-15T08:05:12.780Z,99478.02
2023-03-15T08:07:42.997Z,99479.61
2023-03-15T08:10:12.620Z,99487.33
2023-03-15T08:12:44.817Z,99479.68
2023-03-15T08:15:14.319Z,99480.38
2023-03-15T08:17:44.689Z,99474.74
2023-03-15T08:20:18.241Z,99470.73
2023-03-15T08:22:49.380Z,99462.59
2023-03-15T08:25:20.861Z,99467.10
2023-03-15T08:27:50.601Z,99467.00
2023-03-15T08:30:21.464Z,99461.77
2023-03-15T08:32:53.048Z,99467.38
2023-03-15T08:35:25.342Z,99468.46
2023-03-15T08:37:57.696Z,99471.14
2023-03-15T08:40:26.953Z,99468.84
2023-03-15T08:42:56.793Z,99472.18
2023-03-15T08:45:26.998Z,99462.14
2023-03-15T08:47:59.487Z,99465.28
2023-03-15T08:50:35.272Z,99464.08
2023-03-15T08:53:05.046Z,99456.84
2023-03-15T08:55:34.351Z,99448.27
2023-03-15T08:58:04.922Z,99448.61
2023-03-15T09:00:34.656Z,99446.73
2023-03-15T09:03:04.294Z,99450.22
2023-03-15T09:05:33.320Z,99451.32
2023-03-15T09:08:02.591Z,99453.01
2023-03-15T09:10:32.202Z,99448.45
2023-03-15T09:13:01.239Z,99440.91
2023-03-15T09:15:30.977Z,99440.90
2023-03-15T09:18:00.206Z,99443.38
2023-03-15T09:20:30.090Z,99443.08
2023-03-15T09:23:01.750Z,99442.83
2023-03-15T09:25:31.777Z,99439.83
2023-03-15T09:28:00.964Z,99433.38
2023-03-15T09:30:30.918Z,99429.75
2023-03-15T09:33:01.275Z,99430.51
2023-03-15T09:35:30.588Z,99425.27
2023-03-15T09:38:01.146Z,99421.64
2023-03-15T09:40:35.137Z,99426.25
2023-03-15T09:43:15.510Z,99424.49
2023-03-15T09:46:03.474Z,99426.04
2023-03-15T09:48:44.940Z,99423.83
2023-03-15T09:51:56.150Z,99425.95
2023-03-15T09:54:41.685Z,99434.91
2023-03-15T09:57:24.443Z,99433.11
2023-03-15T09:59:58.049Z,99428.32
2023-03-15T10:02:31.078Z,99421.02
2023-03-15T10:05:27.930Z,99412.71
2023-03-15T10:07:57.133Z,99415.04
2023-03-15T10:10:32.693Z,99413.10
2023-03-15T10:13:09.965Z,99417.07
2023-03-15T10:15:39.351Z,99409.84
2023-03-15T10:18:27.366Z,99406.95
2023-03-15T10:21:39.742Z,99406.74
2023-03-15T10:24:40.387Z,99409.67
2023-03-15T10:27:17.307Z,99406.55
2023-03-15T10:29:46.244Z,99396.56
2023-03-15T10:32:18.383Z,99401.17
2023-03-15T10:34:52.646Z,99395.98
2023-03-15T10:37:25.436Z,99388.52
2023-03-15T10:39:59.220Z,99393.31
2023-03-15T10:42:32.882Z,99397.73
2023-03-15T10:45:21.586Z,99396.91
2023-03-15T10:47:59.565Z,99398.16
2023-03-15T10:50:35.672Z,99405.11
2023-03-15T10:53:11.519Z,99400.42
2023-03-15T10:55:45.308Z,99404.48
2023-03-15T10:58:28.933Z,99403.40
2023-03-15T11:01:08.089Z,99399.00
2023-03-15T11:03:38.569Z,99389.09
2023-03-15T11:06:26.845Z,99384.80
2023-03-15T11:09:12.296Z,99384.19
2023-03-15T11:12:04.940Z,99380.91
2023-03-15T11:14:41.429Z,99387.20
2023-03-15T11:17:18.661Z,99383.45
2023-03-15T11:20:10.497Z,99381.84
2023-03-15T11:22:48.215Z,99383.50
2023-03-15T11:25:17.691Z,99385.44
2023-03-15T11:27:51.571Z,99383.96
2023-03-15T11:30:24.470Z,99378.92
2023-03-15T11:32:54.222Z,99382.88
2023-03-15T11:35:34.140Z,99387.63
2023-03-15T11:38:15.701Z,99381.44
2023-03-15T11:40:48.576Z,99382.10
2023-03-15T11:43:28.472Z,99380.09
2023-03-15T11:45:59.934Z,99380.92
2023-03-15T11:48:51.239Z,99379.52
2023-03-15T11:51:21.244Z,99381.58
2023-03-15T11:54:15.530Z,99382.33
2023-03-15T11:56:58.542Z,99384.46
2023-03-15T11:59:30.834Z,99382.79
2023-03-15T12:02:06.882Z,99378.81
2023-03-15T12:04:35.937Z,99376.30
2023-03-15T12:07:16.732Z,99376.84
2023-03-15T12:09:53.209Z,99377.50
2023-03-15T12:12:26.235Z,99368.92
2023-03-15T12:15:20.232Z,99367.70
2023-03-15T12:18:00.936Z,99368.25
2023-03-15T12:20:50.819Z,99357.60
2023-03-15T12:23:20.095Z,99356.88
2023-03-15T12:26:07.888Z,99358.40
2023-03-15T12:28:50.266Z,99359.16
2023-03-15T12:31:19.364Z,99355.23
2023-03-15T12:33:51.840Z,99355.23
2023-03-15T12:36:39.986Z,99354.11
2023-03-15T12:39:18.583Z,99359.80
2023-03-15T12:41:49.416Z,99362.71
2023-03-15T12:44:34.252Z,99368.46
2023-03-15T12:47:04.710Z,99371.84
2023-03-15T12:49:36.388Z,99375.09
2023-03-15T12:52:11.380Z,99370.70
2023-03-15T12:55:12.358Z,99368.67
2023-03-15T12:57:50.149Z,99364.71
2023-03-15T13:00:23.166Z,99363.37
2023-03-15T13:03:22.746Z,99361.75
2023-03-15T13:06:03.765Z,99360.06
2023-03-15T13:08:40.114Z,99365.61
2023-03-15T13:11:19.735Z,99366.03
2023-03-15T13:13:52.517Z,99371.21
2023-03-15T13:16:40.492Z,99370.64
2023-03-15T13:19:14.769Z,99370.77
2023-03-15T13:22:15.854Z,99374.05
2023-03-15T13:25:05.583Z,99377.41
2023-03-15T13:27:51.492Z,99382.03
2023-03-15T13:30:46.783Z,99390.75
2023-03-15T13:33:22.796Z,99389.02
2023-03-15T13:36:07.422Z,99390.47
2023-03-15T13:38:47.482Z,99396.38
2023-03-15T13:41:26.072Z,99393.20
2023-03-15T13:43:57.110Z,99392.25
2023-03-15T13:46:27.493Z,99385.52
2023-03-15T13:48:56.803Z,99392.10
2023-03-15T13:51:36.604Z,99396.40
2023-03-15T13:54:08.452Z,99396.91
2023-03-15T13:56:49.887Z,99390.66
2023-03-15T13:59:19.183Z,99392.83
2023-03-15T14:01:49.339Z,99391.50
2023-03-15T14:04:21.588Z,99383.56
2023-03-15T14:06:51.323Z,99379.57
2023-03-15T14:09:24.701Z,99378.43
2023-03-15T14:12:07.844Z,99372.04
2023-03-15T14:14:49.619Z,99370.21
2023-03-15T14:17:29.674Z,99369.14
2023-03-15T14:20:09.328Z,99369.64
2023-03-15T14:22:42.054Z,99368.51
2023-03-15T14:25:21.737Z,99369.40
2023-03-15T14:27:50.923Z,99366.69
2023-03-15T14:30:24.723Z,99366.49
2023-03-15T14:32:55.651Z,99366.31
2023-03-15T14:35:26.605Z,99370.81
2023-03-15T14:38:04.469Z,99367.98
2023-03-15T14:40:36.183Z,99367.61
2023-03-15T14:43:06.911Z,99364.74
2023-03-15T14:45:37.142Z,99363.05
2023-03-15T14:48:15.382Z,99356.90
2023-03-15T14:50:45.352Z,99358.66
2023-03-15T14:53:17.141Z,99363.98
2023-03-15T14:55:49.592Z,99362.33
2023-03-15T14:58:21.110Z,99365.34
2023-03-15T15:00:51.836Z,99370.99
2023-03-15T15:03:34.361Z,99372.62
2023-03-15T15:06:03.503Z,99369.70
2023-03-15T15:08:33.045Z,99369.11
2023-03-15T15:11:03.174Z,99371.35
2023-03-15T15:13:38.135Z,99373.00
2023-03-15T15:16:08.004Z,99368.39
2023-03-15T15:18:37.303Z,99366.80
2023-03-15T15:21:13.445Z,99369.92
2023-03-15T15:23:57.322Z,99374.20
2023-03-15T15:26:30.412Z,99376.14
2023-03-15T15:29:01.219Z,99374.88
2023-03-15T15:31:34.602Z,99372.38
2023-03-15T15:34:04.751Z,99370.23
2023-03-15T15:36:35.526Z,99374.16
2023-03-15T15:39:07.211Z,99375.10
2023-03-15T15:41:36.174Z,99382.73
2023-03-15T15:44:15.211Z,99385.70
2023-03-15T15:46:44.017Z,99384.07
2023-03-15T15:49:13.165Z,99381.91
2023-03-15T15:51:46.755Z,99384.89
2023-03-15T15:54:25.471Z,99389.40
2023-03-15T15:56:58.855Z,99387.55
2023-03-15T15:59:28.343Z,99386.95
2023-03-15T16:02:02.212Z,99394.71
2023-03-15T16:04:33.329Z,99402.70
2023-03-15T16:07:02.892Z,99402.50
2023-03-15T16:09:34.012Z,99398.83
2023-03-15T16:12:03.622Z,99402.02
2023-03-15T16:14:34.402Z,99400.49
2023-03-15T16:17:03.426Z,99402.61
2023-03-15T16:19:32.326Z,99402.61
2023-03-15T16:22:01.196Z,99409.57
2023-03-15T16:24:31.581Z,99405.32
2023-03-15T16:27:03.856Z,99402.95
2023-03-15T16:29:44.605Z,99409.54
2023-03-15T16:32:19.299Z,99409.88
2023-03-15T16:34:53.737Z,99401.02
2023-03-15T16:37:42.088Z,99400.34
2023-03-15T16:40:34.296Z,99393.14
2023-03-15T16:43:09.011Z,99394.20
2023-03-15T16:45:37.963Z,99393.80
2023-03-15T16:48:09.317Z,99396.36
2023-03-15T16:50:38.619Z,99396.91
2023-03-15T16:53:08.205Z,99395.13
2023-03-15T16:55:37.683Z,99400.71
2023-03-15T16:58:18.195Z,99403.99
2023-03-15T17:00:48.658Z,99406.44
2023-03-15T17:03:17.964Z,99408.55
2023-03-15T17:05:47.974Z,99402.04
2023-03-15T17:08:20.061Z,99403.77
2023-03-15T17:10:49.566Z,99401.80
2023-03-15T17:13:26.920Z,99403.08
2023-03-15T17:15:55.909Z,99399.48
2023-03-15T17:18:24.951Z,99398.96
2023-03-15T17:20:55.967Z,99405.15
2023-03-15T17:23:25.683Z,99401.98
2023-03-15T17:25:54.409Z,99399.95
2023-03-15T17:28:24.573Z,99400.98
2023-03-15T17:30:59.813Z,99403.35
2023-03-15T17:33:38.955Z,99405.29
2023-03-15T17:36:11.814Z,99407.38
2023-03-15T17:38:43.964Z,99403.73
2023-03-15T17:41:30.339Z,99400.43
2023-03-15T17:44:00.139Z,99406.52
2023-03-15T17:46:30.367Z,99406.46
2023-03-15T17:49:01.043Z,99411.83
2023-03-15T17:51:32.284Z,99416.79
2023-03-15T17:54:01.726Z,99416.77
2023-03-15T17:56:30.685Z,99426.19
2023-03-15T17:58:59.660Z,99428.33
2023-03-15T18:01:28.829Z,99429.73
2023-03-15T18:04:06.374Z,99428.09
2023-03-15T18:06:35.694Z,99430.73
2023-03-15T18:09:09.790Z,99432.80
2023-03-15T18:11:42.792Z,99432.46
2023-03-15T18:14:15.388Z,99433.38
2023-03-15T18:16:50.490Z,99433.88
2023-03-15T18:19:19.440Z,99430.32
2023-03-15T18:21:48.222Z,99428.08
2023-03-15T18:24:18.103Z,99429.77
2023-03-15T18:26:48.450Z,99428.73
2023-03-15T18:29:17.164Z,99433.56
2023-03-15T18:31:46.367Z,99433.48
2023-03-15T18:34:22.303Z,99433.46
2023-03-15T18:36:53.465Z,99436.02
2023-03-15T18:39:25.471Z,99434.73
2023-03-15T18:41:54.290Z,99432.20
2023-03-15T18:44:23.304Z,99431.04
2023-03-15T18:46:52.126Z,99429.37
2023-03-15T18:49:21.673Z,99430.81
2023-03-15T18:51:50.576Z,99431.54
2023-03-15T18:54:25.625Z,99430.92
2023-03-15T18:56:55.098Z,99429.76
2023-03-15T18:59:25.838Z,99430.23
2023-03-15T19:01:54.981Z,99431.98
2023-03-15T19:04:24.257Z,99431.10
2023-03-15T19:06:57.602Z,99440.70
2023-03-15T19:09:26.605Z,99440.27
2023-03-15T19:11:55.465Z,99439.09
2023-03-15T19:14:31.361Z,99438.55
2023-03-15T19:17:00.728Z,99444.95
2023-03-15T19:19:30.105Z,99446.00
2023-03-15T19:21:59.209Z,99445.07
2023-03-15T19:24:29.180Z,99442.77
2023-03-15T19:26:57.926Z,99443.81
2023-03-15T19:29:26.664Z,99447.80
2023-03-15T19:31:56.609Z,99443.11
2023-03-15T19:34:34.194Z,99440.84
2023-03-15T19:37:03.736Z,99440.38
2023-03-15T19:39:32.643Z,99440.08
2023-03-15T19:42:04.691Z,99437.41
2023-03-15T19:44:33.847Z,99439.80
2023-03-15T19:47:09.074Z,99440.77
2023-03-15T19:49:38.232Z,99442.62
2023-03-15T19:52:07.216Z,99440.53
2023-03-15T19:54:36.610Z,99441.90
2023-03-15T19:57:05.410Z,99442.20
2023-03-15T19:59:40.392Z,99439.43
2023-03-15T20:02:13.365Z,99438.36
2023-03-15T20:04:46.056Z,99441.05
2023-03-15T20:07:15.360Z,99439.60
2023-03-15T20:09:44.573Z,99437.38
2023-03-15T20:12:17.569Z,99445.79
2023-03-15T20:14:46.594Z,99441.30
2023-03-15T20:17:16.249Z,99438.13
2023-03-15T20:19:47.769Z,99434.36
2023-03-15T20:22:16.871Z,99440.63
2023-03-15T20:24:46.033Z,99437.17
2023-03-15T20:27:17.047Z,99442.17
2023-03-15T20:29:45.868Z,99434.71
2023-03-15T20:32:15.561Z,99433.02
2023-03-15T20:34:44.545Z,99430.61
2023-03-15T20:37:13.935Z,99432.36
2023-03-15T20:39:43.948Z,99425.13
2023-03-15T20:42:13.195Z,99426.01
2023-03-15T20:44:43.170Z,99425.17
2023-03-15T20:47:12.127Z,99420.16
2023-03-15T20:49:49.413Z,99422.34
2023-03-15T20:52:18.146Z,99419.85
2023-03-15T20:54:46.980Z,99417.17
2023-03-15T20:57:15.697Z,99415.55
2023-03-15T20:59:44.506Z,99414.67
2023-03-15T21:02:14.945Z,99412.58
2023-03-15T21:04:44.929Z,99409.33
2023-03-15T21:07:20.266Z,99408.40
2023-03-15T21:09:50.701Z,99412.23
2023-03-15T21:12:20.329Z,99409.10
2023-03-15T21:14:49.939Z,99407.76
2023-03-15T21:17:20.613Z,99410.03
2023-03-15T21:19:49.716Z,99408.45
2023-03-15T21:22:20.364Z,99409.33
2023-03-15T21:24:55.923Z,99406.36
2023-03-15T21:27:26.545Z,99405.20
2023-03-15T21:29:57.593Z,99408.81
2023-03-15T21:32:26.636Z,99411.92
2023-03-15T21:34:57.567Z,99407.49
2023-03-15T21:37:26.475Z,99409.63
2023-03-15T21:39:55.448Z,99411.46
2023-03-15T21:42:25.435Z,99414.31
2023-03-15T21:44:54.183Z,99414.23
2023-03-15T21:47:26.349Z,99419.14
2023-03-15T21:49:56.082Z,99416.45
2023-03-15T21:52:26.640Z,99415.61
2023-03-15T21:54:59.218Z,99417.88
2023-03-15T21:57:28.227Z,99419.06
2023-03-15T21:59:58.595Z,99424.84
2023-03-15T22:02:27.598Z,99426.63
2023-03-15T22:04:57.135Z,99425.06
2023-03-15T22:07:26.194Z,99422.57
2023-03-15T22:09:55.134Z,99424.66
2023-03-15T22:12:27.682Z,99422.24
2023-03-15T22:15:05.576Z,99412.98
2023-03-15T22:17:36.432Z,99412.62
2023-03-15T22:20:17.341Z,99412.80
2023-03-15T22:22:48.294Z,99409.55
2023-03-15T22:25:17.533Z,99406.14
2023-03-15T22:27:48.130Z,99403.31
2023-03-15T22:30:19.330Z,99405.04
2023-03-15T22:32:51.036Z,99407.96
2023-03-15T22:35:20.915Z,99404.40
2023-03-15T22:37:50.229Z,99406.78
2023-03-15T22:40:19.670Z,99408.21
2023-03-15T22:42:51.273Z,99408.81
2023-03-15T22:45:21.174Z,99410.25
2023-03-15T22:47:51.655Z,99409.34
2023-03-15T22:50:22.363Z,99409.64
2023-03-15T22:52:56.028Z,99402.46
2023-03-15T22:55:25.380Z,99404.09
2023-03-15T22:57:54.610Z,99405.77
2023-03-15T23:00:24.220Z,99406.88
2023-03-15T23:02:55.202Z,99408.42
2023-03-15T23:05:24.448Z,99405.13
2023-03-15T23:07:53.519Z,99402.89
2023-03-15T23:10:22.721Z,99404.98
2023-03-15T23:12:52.350Z,99411.91
2023-03-15T23:15:21.553Z,99415.92
2023-03-15T23:17:51.222Z,99417.92
2023-03-15T23:20:20.867Z,99417.56
2023-03-15T23:22:53.419Z,99418.66
2023-03-15T23:25:22.951Z,99415.86
2023-03-15T23:27:52.120Z,99417.11
2023-03-15T23:30:21.581Z,99418.13
2023-03-15T23:32:53.489Z,99416.40
2023-03-15T23:35:27.147Z,99407.67
2023-03-15T23:37:56.974Z,99404.70
2023-03-15T23:40:26.502Z,99404.40
2023-03-15T23:43:01.239Z,99399.09
2023-03-15T23:45:30.705Z,99404.75
2023-03-15T23:48:06.512Z,99402.38
2023-03-15T23:50:38.047Z,99401.39
2023-03-15T23:53:07.206Z,99400.00
2023-03-15T23:55:36.722Z,99397.86
2023-03-15T23:58:07.296Z,99398.80
